Облачно с превалявания от дъжд
Облачно със слаб дъжд
Облачно със слаб дъжд
Облачно с превалявания от дъжд
Облачно със слаб дъжд
Облачно със слаб дъжд
Облачно със слаб дъжд
Облачно със слаб дъжд
Мъгла/ ниска слоеста облачност, с перести облаци
(°C)
16°
16°
15°
15°
15°
15°
14°
14°
14°
14°
14°
14°
13°
13°
13°
13°
12°
12°
(°C)
15°
15°
14°
14°
14°
14°
13°
13°
12°
Ю
ЮЗ
ЗЮЗ
И
СИ
ЮИ
ИЮИ
Ю
ЮИ
(km/h)
8-20
9-18
7-17
7-17
6-16
5-13
5-13
5-10
5-11
(мм)
3
0.2
0.9
6.7
1.2
0.5
0.2
1.6
0
(%)
68
93
99
89
94
82
73
83
73

Издигане на слънцето

/ 8.4°
sun-icon
UV 1
05:15
21:14
Нарастваща луна (104°)
14:25
01:48

METAR за Инсбрук (LOWI)

Час Условия Температура/
Точка на оросяване
Вятър Видимост Времето Облаци Налягане Промяна Сурови
VFR 15°C / 14°C 1kt 9700m Light Showers Rain 3.00mm precipitation Few Clouds 700ft
Scattered Clouds 3600ft
Broken Clouds 8000ft
1012 Temporary: Showers Rain . LOWI 151750Z VRB01KT 9999 -SHRA FEW007 SCT036 BKN080 15/14 Q1012 TEMPO SHRA
VFR 16°C / 14°C 70º variable 340º to 110º 3kt 9700m Showers Rain 3.00mm precipitation Few Clouds 2000ft
Broken Clouds 6000ft
1012 Temporary: Light Showers Rain . LOWI 151720Z 07003KT 340V110 9999 SHRA FEW020 BKN060 16/14 Q1012 TEMPO -SHRA
VFR 17°C / 13°C 100º 5kt 9700m Showers Rain 3.00mm precipitation Few Clouds 2400ft
Broken Clouds 6000ft
1011 Temporary: Light Showers Rain . LOWI 151650Z 10005KT 9999 SHRA FEW024 BKN060 17/13 Q1011 TEMPO -SHRA
VFR 17°C / 13°C 240º variable 200º to 270º 5kt 9700m - Few Clouds 2400ft
Scattered Clouds 2800ft
Broken Clouds 7000ft
1011 No Significant change LOWI 151620Z 24005KT 200V270 9999 FEW024 SCT028 BKN070 17/13 Q1011 NOSIG
VFR 18°C / 13°C 2kt 9700m - Few Clouds 2500ft
Broken Clouds 8000ft
1011 No Significant change LOWI 151550Z VRB02KT 9999 FEW025 BKN080 18/13 Q1011 NOSIG
VFR 17°C / 14°C 280º variable 250º to 320º 4kt 9700m - Few Clouds 2500ft
Broken Clouds 9000ft
1011 No Significant change LOWI 151520Z 28004KT 250V320 9999 FEW025 BKN090 17/14 Q1011 NOSIG
VFR 17°C / 14°C 270º 7kt 9700m Light Showers Rain 3.00mm precipitation Few Clouds 2500ft
Broken Clouds 7000ft
1011 No Significant change LOWI 151450Z 27007KT 9999 -SHRA FEW025 BKN070 17/14 Q1011 NOSIG
VFR 17°C / 13°C 270º 8kt 9700m - Few Clouds 5000ft
Broken Clouds 8000ft
1011 No Significant change LOWI 151420Z 27008KT 9999 FEW050 BKN080 17/13 Q1011 NOSIG
VFR 17°C / 13°C 260º 7kt 9700m - Few Clouds 5000ft
Broken Clouds 8000ft
1012 No Significant change LOWI 151350Z 26007KT 9999 FEW050 BKN080 17/13 Q1012 NOSIG
VFR 16°C / 12°C 260º 7kt 9700m - Few Clouds 5000ft
Broken Clouds 8000ft
1012 No Significant change LOWI 151320Z 26007KT 9999 FEW050 BKN080 16/12 Q1012 NOSIG
VFR 17°C / 12°C 290º variable 260º to 330º 3kt 9700m - Few Clouds 4500ft
Broken Clouds 7000ft
1012 No Significant change LOWI 151250Z 29003KT 260V330 9999 FEW045 BKN070 17/12 Q1012 NOSIG
VFR 17°C / 12°C 290º variable 270º to 340º 6kt 9700m - Few Clouds 4000ft
Broken Clouds 6500ft
1012 No Significant change LOWI 151220Z 29006KT 270V340 9999 FEW040 BKN065 17/12 Q1012 NOSIG
VFR 17°C / 11°C 260º variable 220º to 290º 11kt 9700m - Few Clouds 4000ft
Broken Clouds 6000ft
1012 No Significant change LOWI 151150Z 26011KT 220V290 9999 FEW040 BKN060 17/11 Q1012 NOSIG
VFR 17°C / 11°C 250º 12kt 9700m - Few Clouds 4000ft
Broken Clouds 5500ft
1012 Temporary: Showers Rain . LOWI 151120Z 25012KT 9999 FEW040 BKN055 17/11 Q1012 TEMPO SHRA
VFR 17°C / 12°C 270º 11kt 9700m - Few Clouds 4000ft
Broken Clouds 5500ft
1012 Temporary: Showers Rain . LOWI 151050Z 27011KT 9999 FEW040 BKN055 17/12 Q1012 TEMPO SHRA
VFR 18°C / 13°C 2kt 9700m - Few Clouds 4000ft
Broken Clouds 5500ft
1011 Temporary: Wind 270º 10kt. LOWI 151020Z VRB02KT 9999 FEW040 BKN055 18/13 Q1011 TEMPO 27010KT
VFR 18°C / 12°C 2kt 9700m - Few Clouds 4000ft
Broken Clouds 5500ft
1011 No Significant change LOWI 150950Z VRB02KT 9999 FEW040 BKN055 18/12 Q1011 NOSIG
VFR 17°C / 12°C 7kt 9700m - Few Clouds 5000ft
Scattered Clouds 6000ft
Broken Clouds 9000ft
1011 No Significant change LOWI 150920Z VRB07KT 9999 FEW050 SCT060 BKN090 17/12 Q1011 NOSIG
VFR 18°C / 12°C 270º 11kt. Wind Shear present on Runway 26. 9700m - Few Clouds 5000ft
Scattered Clouds 6000ft
Broken Clouds 9000ft
1011 Temporary: Wind 100º 10kt. Gust 20KT. LOWI 150850Z 27011KT 9999 FEW050 SCT060 BKN090 18/12 Q1011 WS R26 TEMPO 10010G20KT
VFR 17°C / 12°C 270º 7kt. Wind Shear present on Runway 26. 9700m - Few Clouds 5000ft
Scattered Clouds 6000ft
Broken Clouds 9000ft
1011 Temporary: Wind 100º 10kt. Gust 20KT. LOWI 150820Z 27007KT 9999 FEW050 SCT060 BKN090 17/12 Q1011 WS R26 TEMPO 10010G20KT
VFR 17°C / 12°C 270º 9kt. Wind Shear present on Runway 26. 9700m - Few Clouds 5000ft
Broken Clouds 10000ft
1011 Temporary: Wind 100º 10kt. Gust 20KT. LOWI 150750Z 27009KT 9999 FEW050 BKN100 17/12 Q1011 WS R26 TEMPO 10010G20KT
VFR 17°C / 12°C 270º 10kt. Wind Shear present on Runway 26. 9700m - Few Clouds 5000ft
Broken Clouds 10000ft
1011 Temporary: Wind 100º 10kt. Gust 20KT. LOWI 150720Z 27010KT 9999 FEW050 BKN100 17/12 Q1011 WS R26 TEMPO 10010G20KT
VFR 17°C / 12°C 270º 9kt. Wind Shear present on Runway 26. 9700m - Few Clouds 5000ft
Broken Clouds 11000ft
1011 Temporary: from 0730 Wind 100º 10kt. Gust 20KT. LOWI 150650Z 27009KT 9999 FEW050 BKN110 17/12 Q1011 WS R26 TEMPO FM0730 10010G20KT
VFR 16°C / 11°C 260º 8kt. Wind Shear present on Runway 26. 9700m - Few Clouds 5000ft 1011 Temporary: from 0700 Wind 100º 10kt. Gust 20KT. LOWI 150620Z 26008KT 9999 FEW050 16/11 Q1011 WS R26 TEMPO FM0700 10010G20KT

VFR

15°C / 14°C

[Още]
Вятър 1kt
Видимост 9700m
Времето Light Showers Rain 3.00mm precipitation
Облаци Few Clouds 700ft
Scattered Clouds 3600ft
Broken Clouds 8000ft
Налягане 1012
Промяна Temporary: Showers Rain .
Сурови LOWI 151750Z VRB01KT 9999 -SHRA FEW007 SCT036 BKN080 15/14 Q1012 TEMPO SHRA

VFR

16°C / 14°C

[Още]
Вятър 70º variable 340º to 110º 3kt
Видимост 9700m
Времето Showers Rain 3.00mm precipitation
Облаци Few Clouds 2000ft
Broken Clouds 6000ft
Налягане 1012
Промяна Temporary: Light Showers Rain .
Сурови LOWI 151720Z 07003KT 340V110 9999 SHRA FEW020 BKN060 16/14 Q1012 TEMPO -SHRA

VFR

17°C / 13°C

[Още]
Вятър 100º 5kt
Видимост 9700m
Времето Showers Rain 3.00mm precipitation
Облаци Few Clouds 2400ft
Broken Clouds 6000ft
Налягане 1011
Промяна Temporary: Light Showers Rain .
Сурови LOWI 151650Z 10005KT 9999 SHRA FEW024 BKN060 17/13 Q1011 TEMPO -SHRA

VFR

17°C / 13°C

[Още]
Вятър 240º variable 200º to 270º 5kt
Видимост 9700m
Времето -
Облаци Few Clouds 2400ft
Scattered Clouds 2800ft
Broken Clouds 7000ft
Налягане 1011
Промяна No Significant change
Сурови LOWI 151620Z 24005KT 200V270 9999 FEW024 SCT028 BKN070 17/13 Q1011 NOSIG

VFR

18°C / 13°C

[Още]
Вятър 2kt
Видимост 9700m
Времето -
Облаци Few Clouds 2500ft
Broken Clouds 8000ft
Налягане 1011
Промяна No Significant change
Сурови LOWI 151550Z VRB02KT 9999 FEW025 BKN080 18/13 Q1011 NOSIG

VFR

17°C / 14°C

[Още]
Вятър 280º variable 250º to 320º 4kt
Видимост 9700m
Времето -
Облаци Few Clouds 2500ft
Broken Clouds 9000ft
Налягане 1011
Промяна No Significant change
Сурови LOWI 151520Z 28004KT 250V320 9999 FEW025 BKN090 17/14 Q1011 NOSIG

VFR

17°C / 14°C

[Още]
Вятър 270º 7kt
Видимост 9700m
Времето Light Showers Rain 3.00mm precipitation
Облаци Few Clouds 2500ft
Broken Clouds 7000ft
Налягане 1011
Промяна No Significant change
Сурови LOWI 151450Z 27007KT 9999 -SHRA FEW025 BKN070 17/14 Q1011 NOSIG

VFR

17°C / 13°C

[Още]
Вятър 270º 8kt
Видимост 9700m
Времето -
Облаци Few Clouds 5000ft
Broken Clouds 8000ft
Налягане 1011
Промяна No Significant change
Сурови LOWI 151420Z 27008KT 9999 FEW050 BKN080 17/13 Q1011 NOSIG

VFR

17°C / 13°C

[Още]
Вятър 260º 7kt
Видимост 9700m
Времето -
Облаци Few Clouds 5000ft
Broken Clouds 8000ft
Налягане 1012
Промяна No Significant change
Сурови LOWI 151350Z 26007KT 9999 FEW050 BKN080 17/13 Q1012 NOSIG

VFR

16°C / 12°C

[Още]
Вятър 260º 7kt
Видимост 9700m
Времето -
Облаци Few Clouds 5000ft
Broken Clouds 8000ft
Налягане 1012
Промяна No Significant change
Сурови LOWI 151320Z 26007KT 9999 FEW050 BKN080 16/12 Q1012 NOSIG

VFR

17°C / 12°C

[Още]
Вятър 290º variable 260º to 330º 3kt
Видимост 9700m
Времето -
Облаци Few Clouds 4500ft
Broken Clouds 7000ft
Налягане 1012
Промяна No Significant change
Сурови LOWI 151250Z 29003KT 260V330 9999 FEW045 BKN070 17/12 Q1012 NOSIG

VFR

17°C / 12°C

[Още]
Вятър 290º variable 270º to 340º 6kt
Видимост 9700m
Времето -
Облаци Few Clouds 4000ft
Broken Clouds 6500ft
Налягане 1012
Промяна No Significant change
Сурови LOWI 151220Z 29006KT 270V340 9999 FEW040 BKN065 17/12 Q1012 NOSIG

VFR

17°C / 11°C

[Още]
Вятър 260º variable 220º to 290º 11kt
Видимост 9700m
Времето -
Облаци Few Clouds 4000ft
Broken Clouds 6000ft
Налягане 1012
Промяна No Significant change
Сурови LOWI 151150Z 26011KT 220V290 9999 FEW040 BKN060 17/11 Q1012 NOSIG

VFR

17°C / 11°C

[Още]
Вятър 250º 12kt
Видимост 9700m
Времето -
Облаци Few Clouds 4000ft
Broken Clouds 5500ft
Налягане 1012
Промяна Temporary: Showers Rain .
Сурови LOWI 151120Z 25012KT 9999 FEW040 BKN055 17/11 Q1012 TEMPO SHRA

VFR

17°C / 12°C

[Още]
Вятър 270º 11kt
Видимост 9700m
Времето -
Облаци Few Clouds 4000ft
Broken Clouds 5500ft
Налягане 1012
Промяна Temporary: Showers Rain .
Сурови LOWI 151050Z 27011KT 9999 FEW040 BKN055 17/12 Q1012 TEMPO SHRA

VFR

18°C / 13°C

[Още]
Вятър 2kt
Видимост 9700m
Времето -
Облаци Few Clouds 4000ft
Broken Clouds 5500ft
Налягане 1011
Промяна Temporary: Wind 270º 10kt.
Сурови LOWI 151020Z VRB02KT 9999 FEW040 BKN055 18/13 Q1011 TEMPO 27010KT

VFR

18°C / 12°C

[Още]
Вятър 2kt
Видимост 9700m
Времето -
Облаци Few Clouds 4000ft
Broken Clouds 5500ft
Налягане 1011
Промяна No Significant change
Сурови LOWI 150950Z VRB02KT 9999 FEW040 BKN055 18/12 Q1011 NOSIG

VFR

17°C / 12°C

[Още]
Вятър 7kt
Видимост 9700m
Времето -
Облаци Few Clouds 5000ft
Scattered Clouds 6000ft
Broken Clouds 9000ft
Налягане 1011
Промяна No Significant change
Сурови LOWI 150920Z VRB07KT 9999 FEW050 SCT060 BKN090 17/12 Q1011 NOSIG

VFR

18°C / 12°C

[Още]
Вятър 270º 11kt. Wind Shear present on Runway 26.
Видимост 9700m
Времето -
Облаци Few Clouds 5000ft
Scattered Clouds 6000ft
Broken Clouds 9000ft
Налягане 1011
Промяна Temporary: Wind 100º 10kt. Gust 20KT.
Сурови LOWI 150850Z 27011KT 9999 FEW050 SCT060 BKN090 18/12 Q1011 WS R26 TEMPO 10010G20KT

VFR

17°C / 12°C

[Още]
Вятър 270º 7kt. Wind Shear present on Runway 26.
Видимост 9700m
Времето -
Облаци Few Clouds 5000ft
Scattered Clouds 6000ft
Broken Clouds 9000ft
Налягане 1011
Промяна Temporary: Wind 100º 10kt. Gust 20KT.
Сурови LOWI 150820Z 27007KT 9999 FEW050 SCT060 BKN090 17/12 Q1011 WS R26 TEMPO 10010G20KT

VFR

17°C / 12°C

[Още]
Вятър 270º 9kt. Wind Shear present on Runway 26.
Видимост 9700m
Времето -
Облаци Few Clouds 5000ft
Broken Clouds 10000ft
Налягане 1011
Промяна Temporary: Wind 100º 10kt. Gust 20KT.
Сурови LOWI 150750Z 27009KT 9999 FEW050 BKN100 17/12 Q1011 WS R26 TEMPO 10010G20KT

VFR

17°C / 12°C

[Още]
Вятър 270º 10kt. Wind Shear present on Runway 26.
Видимост 9700m
Времето -
Облаци Few Clouds 5000ft
Broken Clouds 10000ft
Налягане 1011
Промяна Temporary: Wind 100º 10kt. Gust 20KT.
Сурови LOWI 150720Z 27010KT 9999 FEW050 BKN100 17/12 Q1011 WS R26 TEMPO 10010G20KT

VFR

17°C / 12°C

[Още]
Вятър 270º 9kt. Wind Shear present on Runway 26.
Видимост 9700m
Времето -
Облаци Few Clouds 5000ft
Broken Clouds 11000ft
Налягане 1011
Промяна Temporary: from 0730 Wind 100º 10kt. Gust 20KT.
Сурови LOWI 150650Z 27009KT 9999 FEW050 BKN110 17/12 Q1011 WS R26 TEMPO FM0730 10010G20KT

VFR

16°C / 11°C

[Още]
Вятър 260º 8kt. Wind Shear present on Runway 26.
Видимост 9700m
Времето -
Облаци Few Clouds 5000ft
Налягане 1011
Промяна Temporary: from 0700 Wind 100º 10kt. Gust 20KT.
Сурови LOWI 150620Z 26008KT 9999 FEW050 16/11 Q1011 WS R26 TEMPO FM0700 10010G20KT

TAF за Инсбрук (LOWI)

From till


Maximum Temperature 23ºC on . Minimum Temperature 13ºC on .
From till Wind 3kt. Visibility 9700m. Few Clouds 1500ft. Broken Clouds 5000ft.
Temporarly from till Wind 270º 10kt. Showers Rain .
With 40% probability, Temporarly from till Broken Clouds 1300ft.
Becoming from till

Сурови: TAF LOWI 151715Z 1518/1618 VRB03KT 9999 FEW015 BKN050 TX23/1615Z TN13/1603Z TEMPO 1518/1604 27010KT SHRA PROB40 TEMPO 1521/1604 BKN013 BECMG 1610/1612 08008KT

Радар и валежи в момента за Инсбрук

Ситен дъжд
Лек
Умерен
Силен
Много силен
Аве

Маркерът за локация обозначава Инсбрук. Тази анимация показва радара за валежи за избрания времеви диапазон, както и 2h прогноза. Оранжеви кръстчета показват мълнии. Данните са предоставени от nowcast.de (налични в САЩ, Европа и Австралия). Дъждът или лекият сняг може да са невидими за радара. Интензивността на валежите е обозначена с цветни кодове, вариращи от тюркоазено до червено.

Актуални сателитни и дъждовни снимки за Инсбрук, Австрия

Маркерът за локация е поставен върху Инсбрук. [Още]

Сателитното изображение в реално време съчетава видимата светлина през деня с инфрачервеното лъчение през нощта. През нощта изображението не е тъмно, тъй като инфрачервеното лъчение може да открива температурни разлики. За съжаление ниските облаци и мъглата са трудни за разграничаване от температурите на земята и затова могат да бъдат почти невидими през нощта. Сателитните изображения на Meteosat за Европа се актуализират в реално време на всеки 5 минути. Изображенията GOES-16/GOES-17 (Северна и Южна Америка) и Химавари (Азия) се актуализират на всеки 10 минути.

Количеството на валежите се изчислява от радари и спътници. Оценките на валежите от сателити са по-малко точни през нощта, отколкото през деня.

© 2024 meteoblue, NOAA Satellites GOES-16 and EUMETSAT. Данни за светкавици, предоставени от nowcast.

Върнете се в началото
×
Здравейте,
изглежда, че използвате рекламен блокер.

Рекламата е от съществено значение за поддържането на нашия безплатен уебсайт с уникални подробности и точност.

Моля, включете www.meteoblue.com в белия списък на вашия блокер на реклами или помислете за закупуване на някой от нашите продукти:

Вече имате абонамент?
Тогава, моля, влезте.